createdAt,value
2023-05-10T00:01:54.860Z,100989.29
2023-05-10T00:04:21.808Z,100984.84
2023-05-10T00:06:48.105Z,100980.59
2023-05-10T00:09:14.460Z,100980.52
2023-05-10T00:11:40.632Z,100977.85
2023-05-10T00:14:06.971Z,100974.04
2023-05-10T00:16:33.305Z,100973.50
2023-05-10T00:18:59.649Z,100972.33
2023-05-10T00:21:26.136Z,100968.97
2023-05-10T00:23:52.416Z,100967.39
2023-05-10T00:26:18.670Z,100964.73
2023-05-10T00:28:44.902Z,100963.80
2023-05-10T00:31:11.331Z,100962.64
2023-05-10T00:33:37.765Z,100960.30
2023-05-10T00:36:04.468Z,100960.50
2023-05-10T00:38:30.731Z,100956.79
2023-05-10T00:40:57.032Z,100954.41
2023-05-10T00:43:23.195Z,100952.48
2023-05-10T00:45:50.124Z,100956.02
2023-05-10T00:48:16.713Z,100953.27
2023-05-10T00:50:43.144Z,100952.91
2023-05-10T00:53:09.649Z,100952.40
2023-05-10T00:55:36.460Z,100949.06
2023-05-10T00:58:03.157Z,100949.33
2023-05-10T01:00:30.027Z,100952.64
2023-05-10T01:02:56.453Z,100948.92
2023-05-10T01:05:22.885Z,100949.31
2023-05-10T01:07:49.248Z,100947.59
2023-05-10T01:10:15.956Z,100945.02
2023-05-10T01:12:45.442Z,100943.41
2023-05-10T01:15:13.251Z,100944.00
2023-05-10T01:17:42.774Z,100937.34
2023-05-10T01:20:10.455Z,100938.45
2023-05-10T01:22:36.656Z,100936.70
2023-05-10T01:25:11.900Z,100938.30
2023-05-10T01:27:46.694Z,100935.22
2023-05-10T01:30:47.159Z,100938.45
2023-05-10T01:33:22.689Z,100933.86
2023-05-10T01:36:01.929Z,100933.84
2023-05-10T01:38:53.371Z,100930.70
2023-05-10T01:41:36.823Z,100930.80
2023-05-10T01:44:11.914Z,100930.20
2023-05-10T01:46:40.686Z,100932.42
2023-05-10T01:49:22.631Z,100932.38
2023-05-10T01:51:52.410Z,100922.89
2023-05-10T01:54:22.108Z,100921.55
2023-05-10T01:56:53.433Z,100922.91
2023-05-10T01:59:20.798Z,100919.16
2023-05-10T02:01:49.335Z,100921.59
2023-05-10T02:04:17.822Z,100919.06
2023-05-10T02:06:46.863Z,100915.16
2023-05-10T02:09:14.559Z,100916.70
2023-05-10T02:11:43.968Z,100916.14
2023-05-10T02:14:11.859Z,100912.95
2023-05-10T02:16:39.845Z,100913.98
2023-05-10T02:19:08.863Z,100913.02
2023-05-10T02:21:38.764Z,100911.91
2023-05-10T02:24:06.569Z,100912.26
2023-05-10T02:26:35.469Z,100909.71
2023-05-10T02:29:04.062Z,100912.34
2023-05-10T02:31:35.594Z,100913.13
2023-05-10T02:34:03.857Z,100913.88
2023-05-10T02:36:30.400Z,100913.67
2023-05-10T02:38:57.990Z,100910.81
2023-05-10T02:41:26.703Z,100917.95
2023-05-10T02:43:57.904Z,100916.35
2023-05-10T02:46:24.266Z,100916.39
2023-05-10T02:48:50.645Z,100917.25
2023-05-10T02:51:18.611Z,100922.80
2023-05-10T02:53:47.244Z,100918.20
2023-05-10T02:56:25.417Z,100918.47
2023-05-10T02:58:53.065Z,100919.50
2023-05-10T03:01:19.446Z,100921.27
2023-05-10T03:03:45.931Z,100921.68
2023-05-10T03:06:12.363Z,100925.86
2023-05-10T03:08:39.061Z,100921.88
2023-05-10T03:11:18.112Z,100922.27
2023-05-10T03:14:21.824Z,100922.95
2023-05-10T03:16:57.125Z,100924.98
2023-05-10T03:19:30.621Z,100925.02
2023-05-10T03:22:00.409Z,100922.81
2023-05-10T03:24:27.877Z,100922.60
2023-05-10T03:26:57.145Z,100926.35
2023-05-10T03:29:26.710Z,100922.00
2023-05-10T03:31:53.261Z,100918.57
2023-05-10T03:34:24.915Z,100917.30
2023-05-10T03:36:51.648Z,100914.80
2023-05-10T03:39:17.924Z,100916.17
2023-05-10T03:41:44.592Z,100918.98
2023-05-10T03:44:10.970Z,100919.37
2023-05-10T03:46:37.200Z,100918.02
2023-05-10T03:49:03.547Z,100916.27
2023-05-10T03:51:31.535Z,100909.84
2023-05-10T03:53:57.818Z,100911.88
2023-05-10T03:56:24.138Z,100912.01
2023-05-10T03:58:50.556Z,100910.33
2023-05-10T04:01:16.781Z,100913.16
2023-05-10T04:03:43.139Z,100910.83
2023-05-10T04:06:12.046Z,100916.44
2023-05-10T04:08:38.558Z,100914.87
2023-05-10T04:11:06.818Z,100914.04
2023-05-10T04:13:33.187Z,100914.61
2023-05-10T04:15:59.680Z,100912.79
2023-05-10T04:18:26.066Z,100914.44
2023-05-10T04:20:52.375Z,100916.44
2023-05-10T04:23:18.640Z,100918.70
2023-05-10T04:25:45.045Z,100919.77
2023-05-10T04:28:11.316Z,100918.77
2023-05-10T04:30:37.973Z,100918.73
2023-05-10T04:33:04.640Z,100923.66
2023-05-10T04:35:31.046Z,100927.46
2023-05-10T04:37:57.265Z,100926.59
2023-05-10T04:40:23.570Z,100929.21
2023-05-10T04:42:49.989Z,100929.16
2023-05-10T04:45:16.282Z,100931.63
2023-05-10T04:47:42.622Z,100933.45
2023-05-10T04:50:09.386Z,100933.94
2023-05-10T04:52:36.676Z,100934.14
2023-05-10T04:55:10.005Z,100934.39
2023-05-10T04:57:38.173Z,100928.34
2023-05-10T05:00:05.023Z,100926.90
2023-05-10T05:02:31.573Z,100928.77
2023-05-10T05:05:00.862Z,100931.16
2023-05-10T05:07:27.230Z,100929.70
2023-05-10T05:09:53.562Z,100932.64
2023-05-10T05:12:19.790Z,100929.98
2023-05-10T05:14:46.529Z,100927.78
2023-05-10T05:17:12.971Z,100930.16
2023-05-10T05:19:39.323Z,100928.70
2023-05-10T05:22:11.469Z,100928.75
2023-05-10T05:24:38.881Z,100927.75
2023-05-10T05:27:06.149Z,100930.04
2023-05-10T05:29:32.577Z,100931.77
2023-05-10T05:31:58.961Z,100928.78
2023-05-10T05:34:25.887Z,100929.22
2023-05-10T05:36:52.671Z,100936.18
2023-05-10T05:39:19.108Z,100936.57
2023-05-10T05:41:46.447Z,100941.27
2023-05-10T05:44:12.750Z,100942.90
2023-05-10T05:46:39.059Z,100942.50
2023-05-10T05:49:05.348Z,100942.02
2023-05-10T05:51:31.698Z,100943.31
2023-05-10T05:53:58.341Z,100944.02
2023-05-10T05:56:24.850Z,100946.50
2023-05-10T05:58:51.575Z,100946.95
2023-05-10T06:01:17.979Z,100946.63
2023-05-10T06:03:44.238Z,100941.05
2023-05-10T06:06:10.609Z,100943.25
2023-05-10T06:08:36.952Z,100941.39
2023-05-10T06:11:04.411Z,100944.25
2023-05-10T06:13:32.797Z,100946.18
2023-05-10T06:15:59.232Z,100948.71
2023-05-10T06:18:26.039Z,100946.65
2023-05-10T06:20:52.418Z,100946.95
2023-05-10T06:23:18.624Z,100949.73
2023-05-10T06:25:44.877Z,100951.48
2023-05-10T06:28:11.533Z,100950.86
2023-05-10T06:30:37.879Z,100951.87
2023-05-10T06:33:04.164Z,100947.29
2023-05-10T06:35:32.513Z,100943.81
2023-05-10T06:37:58.787Z,100949.61
2023-05-10T06:40:25.157Z,100945.47
2023-05-10T06:42:51.560Z,100944.04
2023-05-10T06:45:17.988Z,100942.20
2023-05-10T06:47:44.540Z,100941.38
2023-05-10T06:50:14.554Z,100942.08
2023-05-10T06:52:40.948Z,100940.02
2023-05-10T06:55:08.724Z,100935.63
2023-05-10T06:57:35.036Z,100940.36
2023-05-10T07:00:02.128Z,100937.65
2023-05-10T07:02:28.560Z,100938.70
2023-05-10T07:04:55.088Z,100937.27
2023-05-10T07:07:21.588Z,100936.14
2023-05-10T07:09:47.895Z,100934.79
2023-05-10T07:12:15.521Z,100937.07
2023-05-10T07:14:42.488Z,100935.06
2023-05-10T07:17:09.333Z,100934.04
2023-05-10T07:19:36.312Z,100938.08
2023-05-10T07:22:02.721Z,100927.27
2023-05-10T07:24:29.594Z,100925.24
2023-05-10T07:26:55.912Z,100933.29
2023-05-10T07:29:22.259Z,100933.73
2023-05-10T07:31:48.557Z,100931.92
2023-05-10T07:34:14.864Z,100931.10
2023-05-10T07:36:41.314Z,100941.27
2023-05-10T07:39:07.845Z,100941.02
2023-05-10T07:41:35.725Z,100938.88
2023-05-10T07:44:02.367Z,100938.77
2023-05-10T07:46:28.942Z,100933.26
2023-05-10T07:48:55.443Z,100932.38
2023-05-10T07:51:21.893Z,100922.38
2023-05-10T07:53:48.278Z,100925.77
2023-05-10T07:56:27.677Z,100937.41
2023-05-10T07:58:54.745Z,100937.13
2023-05-10T08:01:21.163Z,100927.30
2023-05-10T08:03:47.824Z,100920.40
2023-05-10T08:06:15.934Z,100937.58
2023-05-10T08:08:42.649Z,100934.48
2023-05-10T08:11:09.016Z,100937.79
2023-05-10T08:13:35.706Z,100927.36
2023-05-10T08:16:02.793Z,100930.53
2023-05-10T08:18:29.321Z,100931.88
2023-05-10T08:20:55.811Z,100926.14
2023-05-10T08:23:22.268Z,100914.19
2023-05-10T08:25:48.847Z,100922.66
2023-05-10T08:28:15.366Z,100925.81
2023-05-10T08:30:41.747Z,100920.83
2023-05-10T08:33:08.042Z,100925.98
2023-05-10T08:35:35.516Z,100920.68
2023-05-10T08:38:01.887Z,100917.95
2023-05-10T08:40:28.520Z,100923.89
2023-05-10T08:43:02.984Z,100927.28
2023-05-10T08:45:32.793Z,100922.65
2023-05-10T08:48:02.246Z,100918.45
2023-05-10T08:50:29.972Z,100919.60
2023-05-10T08:52:59.793Z,100922.10
2023-05-10T08:55:26.281Z,100928.54
2023-05-10T08:57:52.855Z,100928.91
2023-05-10T09:00:20.375Z,100921.80
2023-05-10T09:02:50.063Z,100924.68
2023-05-10T09:05:18.080Z,100920.53
2023-05-10T09:07:44.689Z,100912.11
2023-05-10T09:10:11.913Z,100914.02
2023-05-10T09:12:39.043Z,100908.69
2023-05-10T09:15:07.341Z,100912.96
2023-05-10T09:17:34.339Z,100901.39
2023-05-10T09:20:01.825Z,100908.40
2023-05-10T09:22:28.217Z,100896.68
2023-05-10T09:25:05.233Z,100900.08
2023-05-10T09:27:31.573Z,100899.52
2023-05-10T09:29:57.991Z,100892.26
2023-05-10T09:32:42.030Z,100892.15
2023-05-10T09:35:10.495Z,100901.92
2023-05-10T09:37:40.150Z,100900.15
2023-05-10T09:40:07.859Z,100904.08
2023-05-10T09:42:35.385Z,100912.41
2023-05-10T09:45:05.925Z,100906.93
2023-05-10T09:47:33.968Z,100896.98
2023-05-10T09:50:03.906Z,100897.25
2023-05-10T09:52:40.501Z,100905.90
2023-05-10T09:55:07.580Z,100901.98
2023-05-10T09:57:35.214Z,100900.01
2023-05-10T10:00:04.174Z,100905.07
2023-05-10T10:02:31.330Z,100896.34
2023-05-10T10:04:57.831Z,100890.39
2023-05-10T10:07:25.900Z,100902.07
2023-05-10T10:09:52.754Z,100891.76
2023-05-10T10:12:20.473Z,100888.00
2023-05-10T10:14:50.756Z,100883.01
2023-05-10T10:17:18.789Z,100883.44
2023-05-10T10:19:50.010Z,100885.13
2023-05-10T10:22:17.644Z,100876.52
2023-05-10T10:24:43.963Z,100877.40
2023-05-10T10:27:35.380Z,100869.81
2023-05-10T10:30:13.029Z,100871.06
2023-05-10T10:33:27.240Z,100862.52
2023-05-10T10:35:58.065Z,100868.84
2023-05-10T10:38:24.906Z,100860.95
2023-05-10T10:41:10.553Z,100857.36
2023-05-10T10:43:36.916Z,100860.89
2023-05-10T10:46:17.339Z,100854.14
2023-05-10T10:49:08.419Z,100849.10
2023-05-10T10:51:38.583Z,100848.45
2023-05-10T10:54:11.972Z,100853.44
2023-05-10T10:56:38.709Z,100851.33
2023-05-10T10:59:05.322Z,100848.35
2023-05-10T11:01:35.818Z,100840.74
2023-05-10T11:04:04.694Z,100848.23
2023-05-10T11:06:34.379Z,100858.98
2023-05-10T11:09:08.867Z,100836.96
2023-05-10T11:11:36.388Z,100839.64
2023-05-10T11:14:07.394Z,100836.86
2023-05-10T11:16:44.355Z,100839.14
2023-05-10T11:19:13.197Z,100849.27
2023-05-10T11:21:48.838Z,100838.36
2023-05-10T11:24:18.343Z,100836.67
2023-05-10T11:26:44.949Z,100846.61
2023-05-10T11:29:13.213Z,100833.91
2023-05-10T11:31:44.357Z,100835.02
2023-05-10T11:34:11.298Z,100831.09
2023-05-10T11:36:37.989Z,100838.08
2023-05-10T11:39:05.080Z,100835.02
2023-05-10T11:41:32.145Z,100826.66
2023-05-10T11:43:59.412Z,100824.12
2023-05-10T11:46:28.678Z,100821.14
2023-05-10T11:49:01.814Z,100830.12
2023-05-10T11:51:28.219Z,100829.27
2023-05-10T11:53:56.983Z,100821.62
2023-05-10T11:56:23.754Z,100821.31
2023-05-10T11:58:55.968Z,100820.73
2023-05-10T12:01:23.526Z,100811.89
2023-05-10T12:03:51.095Z,100810.52
2023-05-10T12:06:19.293Z,100812.29
2023-05-10T12:08:47.266Z,100815.59
2023-05-10T12:11:15.868Z,100816.32
2023-05-10T12:13:46.809Z,100807.64
2023-05-10T12:16:33.584Z,100810.45
2023-05-10T12:19:01.014Z,100808.67
2023-05-10T12:21:29.405Z,100814.64
2023-05-10T12:24:01.840Z,100808.91
2023-05-10T12:26:29.462Z,100811.52
2023-05-10T12:29:18.683Z,100809.76
2023-05-10T12:32:11.529Z,100807.60
2023-05-10T12:34:38.819Z,100813.43
2023-05-10T12:37:05.256Z,100809.23
2023-05-10T12:39:42.535Z,100807.79
2023-05-10T12:42:10.100Z,100805.23
2023-05-10T12:44:36.615Z,100803.20
2023-05-10T12:47:03.078Z,100805.31
2023-05-10T12:49:29.557Z,100797.79
2023-05-10T12:51:55.937Z,100795.19
2023-05-10T12:54:22.326Z,100789.23
2023-05-10T12:56:48.526Z,100787.48
2023-05-10T12:59:14.892Z,100794.87
2023-05-10T13:01:41.304Z,100788.91
2023-05-10T13:04:08.142Z,100784.39
2023-05-10T13:06:35.471Z,100784.26
2023-05-10T13:09:01.762Z,100780.73
2023-05-10T13:11:28.256Z,100778.00
2023-05-10T13:13:54.592Z,100780.42
2023-05-10T13:16:20.998Z,100774.82
2023-05-10T13:18:47.275Z,100782.64
2023-05-10T13:21:13.710Z,100793.63
2023-05-10T13:23:39.982Z,100783.48
2023-05-10T13:26:06.276Z,100784.42
2023-05-10T13:28:32.805Z,100782.04
2023-05-10T13:31:00.518Z,100775.24
2023-05-10T13:33:26.845Z,100775.86
2023-05-10T13:35:55.521Z,100769.29
2023-05-10T13:38:22.534Z,100765.40
2023-05-10T13:40:52.703Z,100763.04
2023-05-10T13:43:19.466Z,100767.85
2023-05-10T13:45:45.903Z,100772.44
2023-05-10T13:48:12.352Z,100764.75
2023-05-10T13:50:38.835Z,100766.89
2023-05-10T13:53:06.001Z,100761.27
2023-05-10T13:55:32.299Z,100756.73
2023-05-10T13:57:58.670Z,100757.94
2023-05-10T14:00:25.265Z,100762.36
2023-05-10T14:02:51.649Z,100760.09
2023-05-10T14:05:19.924Z,100757.29
2023-05-10T14:07:48.525Z,100758.16
2023-05-10T14:10:14.863Z,100756.27
2023-05-10T14:12:41.186Z,100747.36
2023-05-10T14:15:10.682Z,100751.02
2023-05-10T14:17:37.052Z,100753.18
2023-05-10T14:20:04.162Z,100754.64
2023-05-10T14:22:30.526Z,100750.91
2023-05-10T14:24:57.011Z,100744.85
2023-05-10T14:27:23.304Z,100751.30
2023-05-10T14:29:49.534Z,100746.55
2023-05-10T14:32:16.101Z,100750.38
2023-05-10T14:34:42.593Z,100747.31
2023-05-10T14:37:11.775Z,100742.64
2023-05-10T14:39:38.237Z,100738.05
2023-05-10T14:42:05.024Z,100733.39
2023-05-10T14:44:31.970Z,100745.00
2023-05-10T14:46:58.274Z,100749.30
2023-05-10T14:49:26.195Z,100745.00
2023-05-10T14:51:52.565Z,100745.63
2023-05-10T14:54:18.803Z,100741.65
2023-05-10T14:56:45.521Z,100748.59
2023-05-10T14:59:11.939Z,100742.71
2023-05-10T15:01:41.676Z,100747.09
2023-05-10T15:04:08.497Z,100746.75
2023-05-10T15:06:35.749Z,100749.92
2023-05-10T15:09:03.825Z,100750.13
2023-05-10T15:11:30.101Z,100746.06
2023-05-10T15:13:56.349Z,100741.10
2023-05-10T15:16:22.734Z,100743.77
2023-05-10T15:18:49.430Z,100742.16
2023-05-10T15:21:15.873Z,100739.84
2023-05-10T15:23:42.215Z,100741.38
2023-05-10T15:26:08.859Z,100740.81
2023-05-10T15:28:35.350Z,100741.30
2023-05-10T15:31:01.687Z,100748.33
2023-05-10T15:33:28.105Z,100746.42
2023-05-10T15:35:54.497Z,100754.05
2023-05-10T15:38:20.784Z,100753.79
2023-05-10T15:40:47.161Z,100748.23
2023-05-10T15:43:14.090Z,100750.57
2023-05-10T15:45:40.865Z,100749.34
2023-05-10T15:48:07.393Z,100755.60
2023-05-10T15:50:33.780Z,100749.11
2023-05-10T15:53:00.059Z,100743.16
2023-05-10T15:55:27.109Z,100739.67
2023-05-10T15:57:53.767Z,100735.11
2023-05-10T16:00:20.374Z,100741.25
2023-05-10T16:02:46.784Z,100740.86
2023-05-10T16:05:13.279Z,100734.50
2023-05-10T16:07:41.041Z,100722.72
2023-05-10T16:10:09.513Z,100723.02
2023-05-10T16:12:36.104Z,100715.02
2023-05-10T16:15:02.496Z,100725.11
2023-05-10T16:17:28.882Z,100724.92
2023-05-10T16:19:55.315Z,100726.88
2023-05-10T16:22:21.753Z,100726.98
2023-05-10T16:24:48.176Z,100726.94
2023-05-10T16:27:15.485Z,100721.89
2023-05-10T16:29:41.975Z,100719.94
2023-05-10T16:32:09.662Z,100722.42
2023-05-10T16:34:36.080Z,100722.77
2023-05-10T16:37:02.417Z,100722.55
2023-05-10T16:39:28.694Z,100723.19
2023-05-10T16:41:54.997Z,100724.31
2023-05-10T16:44:23.530Z,100722.81
2023-05-10T16:46:52.509Z,100724.80
2023-05-10T16:49:18.745Z,100725.23
2023-05-10T16:51:45.207Z,100729.52
2023-05-10T16:54:11.555Z,100727.85
2023-05-10T16:56:37.883Z,100728.80
2023-05-10T16:59:05.086Z,100730.93
2023-05-10T17:01:32.774Z,100731.70
2023-05-10T17:04:00.260Z,100733.62
2023-05-10T17:06:26.576Z,100737.02
2023-05-10T17:08:52.893Z,100737.38
2023-05-10T17:11:21.138Z,100739.95
2023-05-10T17:13:47.535Z,100737.42
2023-05-10T17:16:13.892Z,100737.02
2023-05-10T17:18:41.947Z,100739.98
2023-05-10T17:21:08.797Z,100745.62
2023-05-10T17:23:35.147Z,100745.78
2023-05-10T17:26:04.228Z,100745.52
2023-05-10T17:28:30.549Z,100750.85
2023-05-10T17:30:57.568Z,100749.79
2023-05-10T17:33:23.903Z,100751.55
2023-05-10T17:35:50.734Z,100753.42
2023-05-10T17:38:17.215Z,100756.44
2023-05-10T17:40:43.711Z,100760.12
2023-05-10T17:43:10.613Z,100763.48
2023-05-10T17:45:37.215Z,100769.09
2023-05-10T17:48:03.966Z,100767.86
2023-05-10T17:50:31.901Z,100769.03
2023-05-10T17:52:58.272Z,100768.66
2023-05-10T17:55:26.383Z,100769.20
2023-05-10T17:57:52.742Z,100774.75
2023-05-10T18:00:19.307Z,100772.92
2023-05-10T18:02:45.651Z,100774.92
2023-05-10T18:05:12.190Z,100775.75
2023-05-10T18:07:39.218Z,100776.52
2023-05-10T18:10:06.448Z,100780.16
2023-05-10T18:12:32.900Z,100778.80
2023-05-10T18:14:59.233Z,100778.82
2023-05-10T18:17:25.603Z,100780.89
2023-05-10T18:19:51.908Z,100778.80
2023-05-10T18:22:18.151Z,100780.74
2023-05-10T18:24:46.281Z,100784.09
2023-05-10T18:27:12.649Z,100788.77
2023-05-10T18:29:44.941Z,100792.11
2023-05-10T18:32:11.850Z,100790.40
2023-05-10T18:34:38.162Z,100795.73
2023-05-10T18:37:06.557Z,100800.66
2023-05-10T18:39:33.454Z,100804.02
2023-05-10T18:41:59.982Z,100809.66
2023-05-10T18:44:26.490Z,100809.90
2023-05-10T18:46:54.144Z,100811.76
2023-05-10T18:49:20.627Z,100811.17
2023-05-10T18:51:47.080Z,100814.11
2023-05-10T18:54:14.339Z,100814.23
2023-05-10T18:56:44.276Z,100815.00
2023-05-10T18:59:11.575Z,100817.69
2023-05-10T19:01:40.240Z,100815.64
2023-05-10T19:04:08.095Z,100814.42
2023-05-10T19:06:35.185Z,100813.36
2023-05-10T19:09:01.561Z,100813.89
2023-05-10T19:11:31.387Z,100815.24
2023-05-10T19:13:58.881Z,100814.20
2023-05-10T19:16:29.285Z,100817.83
2023-05-10T19:18:56.366Z,100813.58
2023-05-10T19:21:22.805Z,100813.64
2023-05-10T19:23:49.120Z,100811.96
2023-05-10T19:26:15.599Z,100812.63
2023-05-10T19:28:42.352Z,100810.86
2023-05-10T19:31:08.776Z,100810.92
2023-05-10T19:33:37.082Z,100812.31
2023-05-10T19:36:04.181Z,100813.69
2023-05-10T19:38:30.700Z,100815.06
2023-05-10T19:40:58.525Z,100814.75
2023-05-10T19:43:30.649Z,100818.69
2023-05-10T19:45:59.844Z,100820.46
2023-05-10T19:48:27.114Z,100818.15
2023-05-10T19:50:58.361Z,100816.68
2023-05-10T19:53:24.721Z,100817.05
2023-05-10T19:55:51.484Z,100820.95
2023-05-10T19:58:18.235Z,100816.39
2023-05-10T20:00:44.645Z,100822.33
2023-05-10T20:03:11.000Z,100825.36
2023-05-10T20:05:37.337Z,100825.30
2023-05-10T20:08:03.718Z,100826.31
2023-05-10T20:10:30.218Z,100830.08
2023-05-10T20:12:58.007Z,100829.52
2023-05-10T20:15:24.371Z,100828.94
2023-05-10T20:17:52.405Z,100830.83
2023-05-10T20:20:20.412Z,100830.95
2023-05-10T20:22:47.981Z,100832.74
2023-05-10T20:25:15.279Z,100827.92
2023-05-10T20:27:41.817Z,100827.18
2023-05-10T20:30:09.726Z,100826.12
2023-05-10T20:32:37.093Z,100830.81
2023-05-10T20:35:04.660Z,100832.91
2023-05-10T20:37:31.195Z,100830.35
2023-05-10T20:39:57.540Z,100829.94
2023-05-10T20:42:24.095Z,100829.25
2023-05-10T20:44:50.534Z,100831.41
2023-05-10T20:47:17.464Z,100833.48
2023-05-10T20:49:43.724Z,100831.17
2023-05-10T20:52:10.335Z,100832.20
2023-05-10T20:54:36.978Z,100838.02
2023-05-10T20:57:03.419Z,100842.01
2023-05-10T20:59:31.306Z,100846.42
2023-05-10T21:01:59.835Z,100846.46
2023-05-10T21:04:26.505Z,100846.20
2023-05-10T21:06:53.034Z,100846.04
2023-05-10T21:09:19.438Z,100846.79
2023-05-10T21:11:45.833Z,100848.17
2023-05-10T21:14:12.077Z,100851.22
2023-05-10T21:16:38.549Z,100852.48
2023-05-10T21:19:06.556Z,100854.11
2023-05-10T21:21:32.874Z,100856.73
2023-05-10T21:23:59.171Z,100856.66
2023-05-10T21:26:25.494Z,100853.87
2023-05-10T21:28:52.317Z,100858.23
2023-05-10T21:31:18.543Z,100861.52
2023-05-10T21:33:45.181Z,100859.20
2023-05-10T21:36:12.043Z,100857.15
2023-05-10T21:38:38.899Z,100856.77
2023-05-10T21:41:08.051Z,100858.48
2023-05-10T21:43:35.461Z,100859.61
2023-05-10T21:46:01.846Z,100859.80
2023-05-10T21:48:28.192Z,100860.75
2023-05-10T21:50:54.450Z,100861.76
2023-05-10T21:53:21.555Z,100862.50
2023-05-10T21:55:47.814Z,100863.52
2023-05-10T21:58:14.086Z,100860.52
2023-05-10T22:00:40.500Z,100860.52
2023-05-10T22:03:07.108Z,100865.35
2023-05-10T22:05:33.650Z,100866.12
2023-05-10T22:08:00.716Z,100874.35
2023-05-10T22:10:29.837Z,100877.79
2023-05-10T22:12:56.692Z,100877.55
2023-05-10T22:15:23.011Z,100875.20
2023-05-10T22:17:49.317Z,100877.23
2023-05-10T22:20:15.686Z,100877.44
2023-05-10T22:22:43.587Z,100881.16
2023-05-10T22:25:10.559Z,100883.34
2023-05-10T22:27:37.056Z,100887.11
2023-05-10T22:30:04.283Z,100889.23
2023-05-10T22:32:31.124Z,100889.04
2023-05-10T22:34:57.456Z,100889.59
2023-05-10T22:37:23.848Z,100886.46
2023-05-10T22:39:50.392Z,100891.21
2023-05-10T22:42:16.681Z,100892.72
2023-05-10T22:44:43.642Z,100897.54
2023-05-10T22:47:10.118Z,100899.79
2023-05-10T22:49:36.880Z,100897.64
2023-05-10T22:52:03.377Z,100899.21
2023-05-10T22:54:29.849Z,100895.85
2023-05-10T22:56:56.350Z,100896.65
2023-05-10T22:59:23.094Z,100896.17
2023-05-10T23:01:50.097Z,100895.34
2023-05-10T23:04:16.366Z,100898.30
2023-05-10T23:06:42.761Z,100899.28
2023-05-10T23:09:09.182Z,100901.45
2023-05-10T23:11:35.406Z,100901.62
2023-05-10T23:14:01.739Z,100898.21
2023-05-10T23:19:37.055Z,100902.47
2023-05-10T23:22:04.781Z,100903.56
2023-05-10T23:24:32.497Z,100905.23
2023-05-10T23:27:00.211Z,100903.15
2023-05-10T23:29:27.953Z,100901.30
2023-05-10T23:31:55.918Z,100904.07
2023-05-10T23:34:23.617Z,100902.77
2023-05-10T23:36:51.289Z,100901.53
2023-05-10T23:39:18.954Z,100903.09
2023-05-10T23:41:46.762Z,100899.38
2023-05-10T23:44:14.433Z,100901.17
2023-05-10T23:46:42.136Z,100904.70
2023-05-10T23:49:09.865Z,100905.52
2023-05-10T23:51:37.532Z,100903.08
2023-05-10T23:54:05.179Z,100902.14
2023-05-10T23:56:33.277Z,100899.00
2023-05-10T23:59:01.136Z,100896.00
